Flight Track Log - Related Links

Times and Time Zones

All times are in EST time to prevent confusion due to time zone crossing. See the ASA55 flight status page for this flight to view local times or setup timezone preferences in your user account.

Time Position Orientation Groundspeed Altitude Reporting Facility
EST Latitude Longitude Course Direction KTS MPH feet Rate Location/Type
Sun 01:41:28 PM 70.2500 -148.6833 285° West 260 299 6,300  Level Anchorage Center
Sun 01:42:28 PM 70.2667 -148.9000 283° West 260 299 9,900 2,800 Climbing Anchorage Center
Sun 01:43:28 PM 70.3000 -149.1167 295° West 310 357 11,900 2,678 Climbing Anchorage Center
Sun 01:44:29 PM 70.3333 -149.3667 292° West 340 391 15,300 3,223 Climbing Anchorage Center
Sun 01:45:00 PM 70.4314 -150.0326 294° West  Level FlightAware Approximate
Sun 01:45:29 PM 70.3833 -149.6333 299° West 350 403 18,400  Level Anchorage Center
Sun 01:46:29 PM 70.4167 -149.8833 292° West 360 414 21,400 2,777 Climbing Anchorage Center
Sun 01:47:30 PM 70.4500 -150.1667 289° West 360 414 24,000 2,380 Climbing Anchorage Center
Sun 01:48:30 PM 70.5000 -150.4500 298° West 390 449 26,200 2,400 Climbing Anchorage Center
Sun 01:49:30 PM 70.5500 -150.7500 297° West 390 449 28,800 2,479 Climbing Anchorage Center
Sun 01:50:31 PM 70.5833 -151.0333 290° West 380 437 31,200 1,587 Climbing Anchorage Center
Sun 01:51:31 PM 70.6167 -151.3333 289° West 390 449 32,000 397 Climbing Anchorage Center
Sun 01:52:32 PM 70.6667 -151.6333 297° West 390 449 32,000  Level Anchorage Center
Sun 01:53:32 PM 70.7000 -151.9167 290° West 370 426 32,000  Level Anchorage Center
Sun 01:54:32 PM 70.7500 -152.2167 297° West 370 426 32,000  Level Anchorage Center
Sun 01:55:33 PM 70.7833 -152.5167 289° West 380 437 32,000  Level Anchorage Center
Sun 01:56:33 PM 70.8167 -152.8500 287° West 390 449 32,000  Level Anchorage Center
Sun 01:57:33 PM 70.8667 -153.1500 297° West 380 437 32,000  Level Anchorage Center
Sun 01:58:34 PM 70.9000 -153.4667 288° West 380 437 32,000 -545 Level Anchorage Center
Sun 01:59:34 PM 70.9333 -153.7667 289° West 400 460 30,900 -1,450 Descending Anchorage Center
Sun 02:00:34 PM 70.9667 -154.0833 288° West 390 449 29,100 -2,380 Descending Anchorage Center
Sun 02:01:35 PM 71.0167 -154.4000 296° West 390 449 26,100 -3,074 Descending Anchorage Center
Sun 02:02:35 PM 71.0500 -154.7000 289° West 390 449 22,900 -3,150 Descending Anchorage Center
Sun 02:03:35 PM 71.0833 -155.0167 288° West 390 449 19,800 -2,529 Descending Anchorage Center
Sun 02:04:36 PM 71.1167 -155.3167 289° West 360 414 17,800 -2,132 Descending Anchorage Center
Sun 02:05:36 PM 71.1500 -155.6000 290° West 340 391 15,500 -2,182 Descending Anchorage Center
Sun 02:06:37 PM 71.1667 -155.8667 281° West 330 380 13,400 -1,983 Descending Anchorage Center
Sun 02:07:37 PM 71.2000 -156.1167 293° West 300 345 11,500 -1,550 Descending Anchorage Center
Sun 02:08:37 PM 71.2167 -156.3667 282° West 290 334 10,300 -793 Descending Anchorage Center
Sun 02:09:38 PM 71.2500 -156.5333 302° West 260 299 9,900 -765 Descending Anchorage Center
Sun 02:11:53 PM 71.2833 -157.0000 18° North 220 253 7,800 -980 Descending Anchorage Center
Sun 02:12:54 PM 71.2833 -157.1833 270° West 200 230 6,700 -1,041 Descending Anchorage Center
Sun 02:13:54 PM 71.2500 -157.3000 228° Southwest 180 207 5,700 -994 Descending Anchorage Center
Sun 02:15:55 PM 71.2833 -157.3500 334° Northwest 180 207 3,700 -961 Descending Anchorage Center
Sun 02:16:55 PM 71.2833 -157.2167 90° East 160 184 2,800 -800 Descending Anchorage Center
Sun 02:17:55 PM 71.2833 -157.1000 90° East 130 150 2,100 -545 Descending Anchorage Center
Sun 02:18:56 PM 71.2833 -157.0000 90° East 120 138 1,700 -496 Descending Anchorage Center
Sun 02:19:56 PM 71.2833 -156.9167 90° East 120 138 1,100 -600 Descending Anchorage Center

Login

Don't have an account? Register now (free) for customized features, flight alerts, and more!